No particular awareness of the weather is required.    There are no Weather-warnings


Meteo18 Weather Cam more information Meteo18 Weather Cam


Thunder radar more information blitzortung!


Rain radar more information rain snow radar


Visit our other weather sites:

Template documentation
and downloads

And another site



Weather Underground History page Text

Daily Summary for August 29, 2017 Units:  English    Metric   Both
« Previous Day
Next Day »
Daily Weekly Monthly Yearly Custom
  High: Low: Average:
Temperature: 96.1 °F 65.8 °F 81.3 °F
Dew Point: 68 °F 56.1 °F 61.5 °F
Humidity: 82 % 27 % 55 %
Wind Speed: 13 mph 0 mph 1.7 mph
Wind Gust: 16 mph - -
Wind:- - South
Pressure: 30 in 29.8 in -
Precipitation: 0 in    
Historical Graphs
 
 
Tabular Data for August 29, 2017
Time Temperature Dew Point Pressure Wind Wind Speed Wind Gust Humidity Rainfall Rate (Hourly)
00:02 76.1 °F 61.7 °F 30 in North 5 mph 6 mph 61 % 0 in
00:12 76.1 °F 61.7 °F 30 in NE 1 mph 6 mph 61 % 0 in
00:17 75.9 °F 61.5 °F 30 in Calm   7 mph 61 % 0 in
00:22 75.9 °F 61.5 °F 30 in ENE 2 mph 7 mph 61 % 0 in
00:32 75.6 °F 61.2 °F 30 in Calm   6 mph 61 % 0 in
00:42 75 °F 61.2 °F 30 in North 2 mph 6 mph 62 % 0 in
00:52 75 °F 61.2 °F 30 in ENE 4 mph 6 mph 62 % 0 in
00:57 74.8 °F 61.3 °F 30 in NNE 6 mph 6 mph 63 % 0 in
01:02 74.8 °F 61.3 °F 30 in NE 6 mph 6 mph 63 % 0 in
01:12 74.7 °F 61.2 °F 30 in NNW 2 mph 7 mph 63 % 0 in
01:17 74.7 °F 61.7 °F 30 in NNE 2 mph 6 mph 64 % 0 in
01:22 74.7 °F 61.7 °F 30 in Calm   6 mph 64 % 0 in
01:27 74.5 °F 61.5 °F 30 in WNW 1 mph 6 mph 64 % 0 in
01:32 73.9 °F 61.3 °F 30 in NW 3 mph 6 mph 65 % 0 in
01:37 73.8 °F 61.3 °F 30 in NNW 1 mph 4 mph 65 % 0 in
01:42 74.1 °F 61.5 °F 30 in Calm   3 mph 65 % 0 in
01:47 74.1 °F 61.5 °F 30 in Calm   5 mph 65 % 0 in
01:52 74.1 °F 61.5 °F 30 in North 1 mph 5 mph 65 % 0 in
01:57 73.9 °F 61.3 °F 30 in NNE 1 mph 5 mph 65 % 0 in
02:02 73.9 °F 61.3 °F 30 in Calm   4 mph 65 % 0 in
02:12 73.9 °F 61.3 °F 30 in Calm   4 mph 65 % 0 in
02:17 73.9 °F 61.3 °F 30 in NNE 1 mph 4 mph 65 % 0 in
02:22 73.9 °F 61.3 °F 30 in NNE 1 mph 3 mph 65 % 0 in
02:27 73.6 °F 61.5 °F 30 in Calm   3 mph 66 % 0 in
02:32 72.9 °F 61.3 °F 30 in Calm   3 mph 67 % 0 in
02:37 72 °F 61.2 °F 30 in WNW 2 mph 3 mph 69 % 0 in
02:42 71.4 °F 61.5 °F 30 in WNW 2 mph 2 mph 71 % 0 in
02:52 72.1 °F 61.3 °F 30 in Calm   2 mph 69 % 0 in
02:57 72.1 °F 61.3 °F 30 in North 1 mph 2 mph 69 % 0 in
03:02 72.1 °F 61.3 °F 30 in North 1 mph 2 mph 69 % 0 in
03:12 72 °F 61.7 °F 30 in Calm   2 mph 70 % 0 in
03:17 71.8 °F 61.5 °F 30 in Calm   1 mph 70 % 0 in
03:22 72 °F 61.7 °F 30 in NNW 1 mph 1 mph 70 % 0 in
03:32 72 °F 61.7 °F 30 in NNW 1 mph 2 mph 70 % 0 in
03:37 71.8 °F 61.5 °F 30 in NNW 1 mph 2 mph 70 % 0 in
03:42 71.8 °F 61.5 °F 30 in NNW 1 mph 2 mph 70 % 0 in
03:47 71.6 °F 61.3 °F 30 in NNE 1 mph 2 mph 70 % 0 in
03:52 71.2 °F 61.3 °F 30 in NNE 1 mph 3 mph 71 % 0 in
03:57 70.9 °F 61.3 °F 30 in Calm   3 mph 72 % 0 in
04:02 70.9 °F 61.3 °F 30 in Calm   3 mph 72 % 0 in
04:12 71.1 °F 61.5 °F 30 in Calm   2 mph 72 % 0 in
04:17 71.1 °F 61.5 °F 30 in NNW 1 mph 2 mph 72 % 0 in
04:22 71.1 °F 61.5 °F 30 in Calm   2 mph 72 % 0 in
04:27 70.5 °F 61.5 °F 30 in NW 2 mph 2 mph 73 % 0 in
04:32 69.8 °F 61.5 °F 30 in NW 1 mph 2 mph 75 % 0 in
04:42 70.2 °F 61.5 °F 30 in Calm   2 mph 74 % 0 in
04:47 69.4 °F 61.2 °F 30 in Calm   1 mph 75 % 0 in
04:52 69.1 °F 61.2 °F 30 in Calm   1 mph 76 % 0 in
04:57 69.3 °F 61.3 °F 30 in North 1 mph 1 mph 76 % 0 in
05:02 69.4 °F 61.2 °F 30 in NW 1 mph 2 mph 75 % 0 in
05:07 69.6 °F 61 °F 30 in NNW 2 mph 2 mph 74 % 0 in
05:22 69.4 °F 61.2 °F 30 in North 1 mph 2 mph 75 % 0 in
05:32 69.3 °F 61 °F 30 in North 1 mph 2 mph 75 % 0 in
05:42 68.5 °F 61 °F 30 in North 1 mph 2 mph 77 % 0 in
05:52 68.5 °F 60.6 °F 30 in NNW 1 mph 2 mph 76 % 0 in
05:57 68.5 °F 60.6 °F 30 in Calm   2 mph 76 % 0 in
06:02 68.4 °F 60.8 °F 30 in Calm   2 mph 77 % 0 in
06:07 68.2 °F 60.6 °F 30 in Calm   2 mph 77 % 0 in
06:12 68 °F 60.4 °F 30 in Calm   1 mph 77 % 0 in
06:17 67.8 °F 60.6 °F 30 in NNW 1 mph 1 mph 78 % 0 in
06:22 67.6 °F 60.6 °F 30 in Calm   1 mph 78 % 0 in
06:32 67.6 °F 60.6 °F 30 in Calm   1 mph 78 % 0 in
06:37 67.5 °F 60.4 °F 30 in Calm   1 mph 78 % 0 in
06:42 67.3 °F 60.6 °F 30 in Calm   1 mph 79 % 0 in
06:47 66.9 °F 60.6 °F 30 in North 1 mph 1 mph 80 % 0 in
06:57 66 °F 60.4 °F 30 in NNE 1 mph 2 mph 82 % 0 in
07:02 65.8 °F 60.3 °F 30 in Calm   2 mph 82 % 0 in
07:07 66 °F 60.4 °F 30 in NNW 1 mph 2 mph 82 % 0 in
07:12 66.2 °F 60.6 °F 30 in Calm   2 mph 82 % 0 in
07:17 66 °F 60.4 °F 30 in Calm   2 mph 82 % 0 in
07:22 66 °F 60.4 °F 30 in Calm   2 mph 82 % 0 in
07:32 66.4 °F 60.4 °F 30 in Calm     81 % 0 in
07:37 66.2 °F 60.3 °F 30 in Calm     81 % 0 in
07:42 66.4 °F 60.4 °F 30 in Calm   2 mph 81 % 0 in
07:47 66.4 °F 60.4 °F 30 in North 1 mph 2 mph 81 % 0 in
07:52 66.6 °F 60.6 °F 30 in Calm   2 mph 81 % 0 in
07:57 66.7 °F 60.8 °F 30 in Calm   2 mph 81 % 0 in
08:02 66.9 °F 60.6 °F 30 in Calm   2 mph 80 % 0 in
08:12 67.5 °F 61.2 °F 30 in Calm   2 mph 80 % 0 in
08:17 68 °F 61.2 °F 30 in Calm   2 mph 79 % 0 in
08:22 68.4 °F 61.5 °F 30 in Calm   1 mph 79 % 0 in
08:32 69.4 °F 61.9 °F 30 in Calm     77 % 0 in
08:37 69.8 °F 61.9 °F 30 in Calm     76 % 0 in
08:42 70.3 °F 62.4 °F 30 in Calm   2 mph 76 % 0 in
08:52 70.9 °F 62.2 °F 30 in NNE 3 mph 3 mph 74 % 0 in
08:57 71.1 °F 62.4 °F 30 in NNE 1 mph 2 mph 74 % 0 in
09:02 71.4 °F 62.8 °F 30 in ENE 2 mph 3 mph 74 % 0 in
09:12 72.5 °F 63.3 °F 29.9 in Calm   3 mph 73 % 0 in
09:17 73 °F 63.5 °F 30 in North 2 mph 3 mph 72 % 0 in
09:22 73.8 °F 63.3 °F 30 in North 3 mph 3 mph 70 % 0 in
09:27 73.9 °F 62.8 °F 30 in Calm   3 mph 68 % 0 in
09:32 74.5 °F 63.1 °F 30 in Calm   4 mph 68 % 0 in
09:42 76.3 °F 64 °F 30 in Calm   3 mph 66 % 0 in
09:47 77.4 °F 63.3 °F 30 in NE 1 mph 3 mph 62 % 0 in
09:52 77 °F 63 °F 30 in NNE 1 mph 2 mph 62 % 0 in
10:02 77.4 °F 62.8 °F 30 in ENE 2 mph 3 mph 61 % 0 in
10:12 78.3 °F 62.2 °F 30 in ENE 2 mph 5 mph 58 % 0 in
10:17 78.4 °F 63 °F 30 in NE 1 mph 5 mph 59 % 0 in
10:22 79 °F 62.4 °F 30 in East 1 mph 4 mph 57 % 0 in
10:32 80.2 °F 62.1 °F 30 in ENE 1 mph 4 mph 54 % 0 in
10:42 81.1 °F 62.4 °F 30 in ENE 2 mph 3 mph 53 % 0 in
11:02 81.9 °F 62.4 °F 30 in ENE 2 mph 3 mph 52 % 0 in
11:07 82 °F 63.1 °F 30 in East 1 mph 3 mph 53 % 0 in
11:12 82.8 °F 63.9 °F 30 in Calm   4 mph 53 % 0 in
11:17 83.8 °F 63.9 °F 30 in Calm   4 mph 51 % 0 in
11:22 84.7 °F 63.5 °F 30 in East 2 mph 3 mph 49 % 0 in
11:32 85.5 °F 63 °F 30 in West 2 mph 4 mph 47 % 0 in
11:42 85.8 °F 63.3 °F 30 in ESE 1 mph 5 mph 47 % 0 in
11:47 85.8 °F 63.3 °F 30 in Calm   5 mph 47 % 0 in
11:52 86.2 °F 63.5 °F 30 in Calm   4 mph 47 % 0 in
12:02 86.7 °F 62.8 °F 30 in WSW 3 mph 5 mph 45 % 0 in
12:12 87.3 °F 63.3 °F 30 in SSW 2 mph 6 mph 45 % 0 in
12:17 87.6 °F 63.7 °F 30 in SSE 5 mph 6 mph 45 % 0 in
12:22 88 °F 63.3 °F 30 in South 1 mph 7 mph 44 % 0 in
12:32 88.9 °F 62.1 °F 29.9 in ESE 2 mph 7 mph 41 % 0 in
12:37 89.2 °F 61.7 °F 29.9 in SSE 2 mph 6 mph 40 % 0 in
12:42 89.4 °F 62.6 °F 29.9 in ENE 3 mph 6 mph 41 % 0 in
12:47 88.9 °F 60.8 °F 29.9 in East 3 mph 6 mph 39 % 0 in
12:52 89.2 °F 61.7 °F 29.9 in SE 3 mph 7 mph 40 % 0 in
13:02 89.8 °F 61.5 °F 29.9 in Calm   7 mph 39 % 0 in
13:07 90 °F 61.7 °F 29.9 in ESE 1 mph 7 mph 39 % 0 in
13:12 90.1 °F 60.4 °F 29.9 in ENE 3 mph 6 mph 37 % 0 in
13:17 90 °F 61 °F 29.9 in ESE 5 mph 6 mph 38 % 0 in
13:22 90 °F 61.7 °F 29.9 in SE 2 mph 7 mph 39 % 0 in
13:32 90.7 °F 63 °F 29.9 in Calm   7 mph 40 % 0 in
13:37 91.2 °F 61.3 °F 29.9 in ENE 3 mph 7 mph 37 % 0 in
13:42 91 °F 61.2 °F 29.9 in ENE 3 mph 7 mph 37 % 0 in
13:52 91.4 °F 61.5 °F 29.9 in ESE 1 mph 10 mph 37 % 0 in
14:02 91.2 °F 62.1 °F 29.9 in East 3 mph 11 mph 38 % 0 in
14:12 91.8 °F 61.7 °F 29.9 in East 3 mph 11 mph 37 % 0 in
14:17 91.9 °F 61.9 °F 29.9 in SSE 2 mph 11 mph 37 % 0 in
14:27 92.5 °F 62.4 °F 29.9 in ENE 3 mph 6 mph 37 % 0 in
14:32 92.1 °F 61.3 °F 29.9 in SE 1 mph 9 mph 36 % 0 in
14:42 92.1 °F 61.3 °F 29.9 in SE 1 mph 10 mph 36 % 0 in
14:52 93.4 °F 59.2 °F 29.9 in SW 2 mph 10 mph 32 % 0 in
14:57 93.9 °F 59.5 °F 29.9 in SW 2 mph 10 mph 32 % 0 in
15:02 93.7 °F 58.5 °F 29.9 in Calm   7 mph 31 % 0 in
15:07 94.1 °F 57.9 °F 29.9 in SSE 2 mph 7 mph 30 % 0 in
15:12 94.5 °F 60.1 °F 29.9 in ENE 4 mph 7 mph 32 % 0 in
15:17 94.1 °F 57 °F 29.9 in SSE 4 mph 7 mph 29 % 0 in
15:22 93.9 °F 58.6 °F 29.9 in ESE 2 mph 8 mph 31 % 0 in
15:32 94.1 °F 57 °F 29.9 in SW 3 mph 8 mph 29 % 0 in
15:42 94.1 °F 57.9 °F 29.9 in ESE 3 mph 7 mph 30 % 0 in
15:47 94.1 °F 57.9 °F 29.9 in SSW 1 mph 7 mph 30 % 0 in
15:52 94.3 °F 57.2 °F 29.9 in SE 5 mph 7 mph 29 % 0 in
15:57 94.8 °F 58.5 °F 29.9 in SSW 1 mph 8 mph 30 % 0 in
16:02 94.3 °F 57.2 °F 29.9 in South 1 mph 8 mph 29 % 0 in
16:07 94.5 °F 57.4 °F 29.9 in SE 4 mph 8 mph 29 % 0 in
16:12 94.5 °F 56.3 °F 29.9 in ENE 1 mph 8 mph 28 % 0 in
16:17 94.3 °F 56.1 °F 29.9 in West 1 mph 7 mph 28 % 0 in
16:22 94.6 °F 57.4 °F 29.9 in ESE 3 mph 7 mph 29 % 0 in
16:27 94.8 °F 56.7 °F 29.9 in Calm   7 mph 28 % 0 in
16:32 95.5 °F 57.2 °F 29.9 in Calm   7 mph 28 % 0 in
16:37 95.5 °F 57.2 °F 29.9 in East 1 mph 7 mph 28 % 0 in
16:42 95.7 °F 56.3 °F 29.9 in NNE 3 mph 7 mph 27 % 0 in
16:47 95.7 °F 57.4 °F 29.9 in ESE 4 mph 7 mph 28 % 0 in
16:52 95.4 °F 58.1 °F 29.9 in East 1 mph 7 mph 29 % 0 in
16:57 95.4 °F 57 °F 29.9 in East 2 mph 7 mph 28 % 0 in
17:02 94.8 °F 57.6 °F 29.9 in ESE 1 mph 7 mph 29 % 0 in
17:12 95.4 °F 57 °F 29.9 in South 1 mph 7 mph 28 % 0 in
17:17 95.4 °F 58.1 °F 29.9 in Calm   7 mph 29 % 0 in
17:22 95.5 °F 57.2 °F 29.9 in SW 3 mph 5 mph 28 % 0 in
17:27 95.4 °F 58.1 °F 29.9 in Calm   5 mph 29 % 0 in
17:32 95.5 °F 58.3 °F 29.9 in SE 3 mph 7 mph 29 % 0 in
17:37 95.5 °F 57.2 °F 29.9 in WSW 5 mph 7 mph 28 % 0 in
17:42 95.4 °F 57 °F 29.9 in SSE 2 mph 7 mph 28 % 0 in
17:47 95.7 °F 57.4 °F 29.9 in South 2 mph 6 mph 28 % 0 in
17:52 95.4 °F 58.1 °F 29.9 in Calm   6 mph 29 % 0 in
17:57 95.5 °F 58.3 °F 29.9 in SSW 1 mph 6 mph 29 % 0 in
18:02 96.1 °F 57.7 °F 29.9 in SSW 2 mph 5 mph 28 % 0 in
18:12 95 °F 57.7 °F 29.9 in ENE 1 mph 5 mph 29 % 0 in
18:17 94.8 °F 58.5 °F 29.9 in Calm   7 mph 30 % 0 in
18:22 95.5 °F 58.3 °F 29.9 in East 1 mph 7 mph 29 % 0 in
18:32 94.3 °F 57.2 °F 29.9 in ENE 4 mph 4 mph 29 % 0 in
18:42 94.5 °F 59.2 °F 29.9 in Calm   9 mph 31 % 0 in
18:47 94.5 °F 59.2 °F 29.9 in ENE 5 mph 6 mph 31 % 0 in
18:52 94.1 °F 58.8 °F 29.9 in Calm   6 mph 31 % 0 in
19:02 94.6 °F 60.3 °F 29.8 in ENE 1 mph 6 mph 32 % 0 in
19:12 93.4 °F 58.3 °F 29.8 in Calm   4 mph 31 % 0 in
19:22 92.7 °F 59.4 °F 29.9 in Calm   4 mph 33 % 0 in
19:27 92.8 °F 60.3 °F 29.9 in Calm   4 mph 34 % 0 in
19:32 93 °F 59.7 °F 29.9 in Calm   3 mph 33 % 0 in
19:37 93.2 °F 61.5 °F 29.9 in Calm   1 mph 35 % 0 in
19:42 93 °F 61.3 °F 29.9 in Calm   1 mph 35 % 0 in
19:47 92.7 °F 60.3 °F 29.9 in Calm     34 % 0 in
19:52 91.9 °F 60.4 °F 29.9 in Calm   3 mph 35 % 0 in
20:02 91 °F 60.4 °F 29.9 in Calm   5 mph 36 % 0 in
20:12 90 °F 61.7 °F 29.9 in WSW 1 mph 4 mph 39 % 0 in
20:17 89.1 °F 62.2 °F 29.8 in Calm   3 mph 41 % 0 in
20:22 88 °F 62.1 °F 29.9 in Calm   2 mph 42 % 0 in
20:32 86.2 °F 63 °F 29.9 in Calm   2 mph 46 % 0 in
20:37 85.6 °F 63.1 °F 29.9 in WSW 2 mph 2 mph 47 % 0 in
20:42 85.5 °F 62.2 °F 29.9 in Calm   1 mph 46 % 0 in
20:52 84.6 °F 62.8 °F 29.9 in SSW 2 mph 3 mph 48 % 0 in
21:02 85.3 °F 62.8 °F 29.9 in SW 5 mph 7 mph 47 % 0 in
21:12 85.6 °F 63.7 °F 29.9 in West 4 mph 7 mph 48 % 0 in
21:17 85.5 °F 64.8 °F 29.9 in WSW 3 mph 9 mph 50 % 0 in
21:27 84.7 °F 65.1 °F 29.9 in SW 3 mph 10 mph 52 % 0 in
21:32 84.4 °F 65.3 °F 29.9 in SSW 6 mph 10 mph 53 % 0 in
21:37 83.3 °F 64.9 °F 29.9 in South 2 mph 8 mph 54 % 0 in
21:42 82.9 °F 65.7 °F 29.9 in SW 13 mph 13 mph 56 % 0 in
21:52 83.7 °F 66.4 °F 29.9 in SW 4 mph 11 mph 56 % 0 in
21:57 83.8 °F 66.4 °F 29.9 in West 5 mph 11 mph 56 % 0 in
22:02 83.7 °F 66.7 °F 29.9 in WSW 3 mph 11 mph 57 % 0 in
22:12 83.1 °F 66.7 °F 29.9 in WSW 3 mph 11 mph 58 % 0 in
22:17 82.9 °F 67.1 °F 29.9 in WSW 5 mph 11 mph 59 % 0 in
22:22 82.9 °F 67.1 °F 29.9 in WSW 3 mph 11 mph 59 % 0 in
22:27 82.9 °F 67.1 °F 29.9 in West 7 mph 11 mph 59 % 0 in
22:32 82.8 °F 67.5 °F 29.9 in West 6 mph 11 mph 60 % 0 in
22:37 82.6 °F 67.3 °F 29.9 in West 6 mph 11 mph 60 % 0 in
22:42 82.4 °F 67.6 °F 29.9 in WSW 4 mph 11 mph 61 % 0 in
22:47 82 °F 67.3 °F 29.9 in SW 3 mph 11 mph 61 % 0 in
22:52 81.9 °F 67.6 °F 29.9 in SW 2 mph 10 mph 62 % 0 in
22:57 81.7 °F 67.8 °F 29.9 in West 4 mph 8 mph 63 % 0 in
23:02 81.3 °F 68 °F 29.9 in WSW 4 mph 8 mph 64 % 0 in
23:12 80.2 °F 67.5 °F 29.9 in WSW 7 mph 8 mph 65 % 0 in
23:17 80.1 °F 66.7 °F 29.9 in WSW 4 mph 15 mph 64 % 0 in
23:22 79.9 °F 66.2 °F 29.9 in WSW 5 mph 15 mph 63 % 0 in
23:32 79.9 °F 65.7 °F 29.9 in WSW 12 mph 14 mph 62 % 0 in
23:42 79.7 °F 65.5 °F 29.9 in WSW 2 mph 16 mph 62 % 0 in
23:47 79.5 °F 65.3 °F 29.9 in WSW 6 mph 16 mph 62 % 0 in
23:52 79.5 °F 65.3 °F 29.9 in WSW 10 mph 15 mph 62 % 0 in
Meteo18
Compliments of Weather Underground - 4 mb

Script developed by  Jim McMurry - jmcmurry@mwt.net Adapted for the template by  Wim van der Kuil - Leuven-Template.eu

You find our weather info also at:

European Weather Network

Weather Underground

Equipment we use:

Weather-station
Davis Vue

Weather-program
Meteohub

Weather-server
Raspberry PI 2 B+

Provider
1 and 1

Davis Vue

Meteohub

Raspberry PI 2 B+

1 and 1